Delray, West Virginia
Current Conditions -  °F | °C
As of 8:15 AM on Sunday 23 Nov 2014 (Local Time) from KOKV Reporting Station
Scattered Clouds Scattered Clouds  
Wind Chill: 41°   Ceiling: Unl
Heat Index: 45°   Visibility: 10mi
Dew Point: 14°   Wind: 6mph
Humidity: 29%   Direction: 220°SW
Pressure: 30.18"   Gusts: NA
Location:  39.21°N, 78.59°W
Report Text: KOKV 231315Z AUTO 22005KT 10SM SCT085 07/M10 A3018 RMK AO2
Loading
Personal Weather Stations






























Interactive Weather Map New forecast layout! Learn more

10-Day Weather Forecast

Advertisements
Track Severe Weather on mobile